Time;durP1;ratioP1;P1;durP2;ratioP2;P2;SDS_P1;SDS_P2;PMS_P1;PMS_P2;Temp;Humidity;BMP_temperature;BMP_pressure;BME280_temperature;BME280_humidity;BME280_pressure;Samples;Min_cycle;Max_cycle;Signal;HPM_P1;HPM_P2
2021/10/09 00:01:51;;;;;;;41.43;19.50;;;9.40;99.90;;;;;;4990384;23;20740;-59
2021/10/09 00:04:16;;;;;;;40.03;20.10;;;9.40;99.90;;;;;;4969222;28;20174;-57
2021/10/09 00:06:42;;;;;;;37.33;19.73;;;9.40;99.90;;;;;;4967634;28;20174;-59
2021/10/09 00:09:09;;;;;;;37.17;20.43;;;9.30;99.90;;;;;;4964673;28;20266;-57
2021/10/09 00:11:38;;;;;;;35.03;19.37;;;9.30;99.90;;;;;;4970731;28;20197;-57
2021/10/09 00:14:10;;;;;;;36.43;18.77;;;9.30;99.90;;;;;;4976234;28;21364;-59
2021/10/09 00:16:37;;;;;;;34.77;19.40;;;9.30;99.90;;;;;;4966276;28;20415;-57
2021/10/09 00:19:03;;;;;;;37.20;19.97;;;9.30;99.90;;;;;;4966926;28;20972;-57
2021/10/09 00:21:29;;;;;;;41.37;19.10;;;9.30;99.90;;;;;;4971022;28;20441;-57
2021/10/09 00:23:55;;;;;;;38.07;19.30;;;9.30;99.90;;;;;;4969378;28;20448;-57
2021/10/09 00:26:21;;;;;;;39.53;18.97;;;9.30;99.90;;;;;;4970185;28;20264;-57
2021/10/09 00:28:46;;;;;;;32.33;17.27;;;9.30;99.90;;;;;;4969518;28;20562;-55
2021/10/09 00:31:12;;;;;;;35.07;18.57;;;9.30;99.90;;;;;;4970126;28;20205;-56
2021/10/09 00:33:38;;;;;;;32.87;19.20;;;9.40;99.90;;;;;;4967085;28;20178;-56
2021/10/09 00:36:04;;;;;;;36.70;19.50;;;9.30;99.90;;;;;;4966300;28;20461;-57
2021/10/09 00:38:30;;;;;;;34.67;18.50;;;9.40;99.90;;;;;;4965424;28;20197;-57
2021/10/09 00:40:55;;;;;;;38.37;19.23;;;9.40;99.90;;;;;;4968281;28;20789;-58
2021/10/09 00:43:21;;;;;;;36.17;18.90;;;9.40;99.90;;;;;;4966218;28;20253;-57
2021/10/09 00:45:56;;;;;;;42.47;19.10;;;9.30;99.90;;;;;;4969582;28;20638;-58
2021/10/09 00:48:24;;;;;;;30.60;17.47;;;9.30;99.90;;;;;;4967598;28;20192;-57
2021/10/09 00:50:50;;;;;;;32.27;16.90;;;9.30;99.90;;;;;;4966249;28;20456;-58
2021/10/09 00:53:18;;;;;;;34.80;17.67;;;9.20;99.90;;;;;;4966706;28;20441;-57
2021/10/09 00:55:44;;;;;;;29.90;17.37;;;9.20;99.90;;;;;;4967540;28;20914;-57
2021/10/09 00:58:10;;;;;;;30.30;17.80;;;9.20;99.90;;;;;;4966813;28;20468;-57
2021/10/09 01:00:36;;;;;;;34.93;17.17;;;9.10;99.90;;;;;;4965880;28;20429;-58
2021/10/09 01:03:05;;;;;;;33.97;18.87;;;9.10;99.90;;;;;;4968017;28;20213;-57
2021/10/09 01:05:32;;;;;;;32.23;18.37;;;9.10;99.90;;;;;;4983991;28;20440;-57
2021/10/09 01:07:58;;;;;;;37.50;17.90;;;9.10;99.90;;;;;;4966862;28;20449;-58
2021/10/09 01:10:26;;;;;;;30.90;18.33;;;9.10;99.90;;;;;;4966596;28;20452;-57
2021/10/09 01:12:51;;;;;;;36.20;18.47;;;9.10;99.90;;;;;;4979426;28;20819;-57
2021/10/09 01:15:19;;;;;;;33.03;17.03;;;9.00;99.90;;;;;;4966080;28;20448;-57
2021/10/09 01:17:45;;;;;;;35.53;18.03;;;9.00;99.90;;;;;;4966090;28;20212;-58
2021/10/09 01:20:14;;;;;;;30.83;18.37;;;9.00;99.90;;;;;;4969314;28;20417;-57
2021/10/09 01:22:40;;;;;;;29.13;16.27;;;8.90;99.90;;;;;;4966899;28;20202;-57
2021/10/09 01:25:08;;;;;;;30.30;18.07;;;8.90;99.90;;;;;;4967861;28;20604;-57
2021/10/09 01:27:35;;;;;;;30.30;17.00;;;8.90;99.90;;;;;;4964463;28;20713;-57
2021/10/09 01:30:01;;;;;;;32.33;18.03;;;8.90;99.90;;;;;;4966422;28;20456;-57
2021/10/09 01:32:27;;;;;;;30.30;17.93;;;8.80;99.90;;;;;;4961976;28;20452;-58
2021/10/09 01:34:52;;;;;;;31.17;16.83;;;8.80;99.90;;;;;;4964948;28;20456;-57
2021/10/09 01:37:18;;;;;;;32.70;18.10;;;8.80;99.90;;;;;;4967619;28;20209;-57
2021/10/09 01:39:46;;;;;;;38.33;18.43;;;8.80;99.90;;;;;;4982332;28;20385;-58
2021/10/09 01:42:12;;;;;;;28.27;16.30;;;8.80;99.90;;;;;;4981419;28;20196;-58
2021/10/09 01:44:38;;;;;;;28.43;15.60;;;8.70;99.90;;;;;;4974187;28;20433;-57
2021/10/09 01:47:03;;;;;;;30.70;16.07;;;8.80;99.90;;;;;;4967051;28;20467;-57
2021/10/09 01:49:29;;;;;;;28.70;15.80;;;8.80;99.90;;;;;;4965122;28;20194;-57
2021/10/09 01:51:55;;;;;;;28.50;16.67;;;8.80;99.90;;;;;;4965995;28;20205;-58
2021/10/09 01:54:21;;;;;;;29.10;16.40;;;8.70;99.90;;;;;;4967189;28;20448;-56
2021/10/09 01:56:46;;;;;;;31.13;15.27;;;8.80;99.90;;;;;;4969831;28;20264;-57
2021/10/09 01:59:12;;;;;;;32.47;15.97;;;8.70;99.90;;;;;;4970455;28;20225;-57
2021/10/09 02:01:38;;;;;;;35.67;17.07;;;8.80;99.90;;;;;;4969563;28;20702;-58
2021/10/09 02:04:04;;;;;;;28.60;16.00;;;8.80;99.90;;;;;;4967639;28;20193;-56
2021/10/09 02:06:30;;;;;;;32.17;17.10;;;8.80;99.90;;;;;;4967356;28;20177;-57
2021/10/09 02:08:56;;;;;;;34.43;16.77;;;8.80;99.90;;;;;;4970189;28;20495;-57
2021/10/09 02:11:25;;;;;;;29.30;15.53;;;8.70;99.90;;;;;;4968760;28;20968;-58
2021/10/09 02:27:18;;;;;;;31.97;15.70;;;8.70;99.90;;;;;;4970343;28;20479;-57
2021/10/09 02:29:44;;;;;;;34.33;15.03;;;8.70;99.90;;;;;;4969704;28;20413;-57
2021/10/09 02:32:09;;;;;;;31.37;15.73;;;8.70;99.90;;;;;;4968742;28;20206;-58
2021/10/09 02:34:35;;;;;;;24.37;14.83;;;8.70;99.90;;;;;;4969023;28;20193;-57
2021/10/09 02:37:01;;;;;;;29.63;15.20;;;8.70;99.90;;;;;;4968432;28;20182;-58
2021/10/09 02:39:26;;;;;;;25.37;14.80;;;8.60;99.90;;;;;;4968458;28;20205;-58
2021/10/09 02:41:52;;;;;;;25.00;14.90;;;8.70;99.90;;;;;;4969293;28;20198;-58
2021/10/09 02:44:19;;;;;;;30.57;16.33;;;8.70;99.90;;;;;;4969924;28;20666;-57
2021/10/09 02:46:44;;;;;;;33.30;15.77;;;8.70;99.90;;;;;;4967943;28;20200;-57
2021/10/09 02:49:10;;;;;;;34.13;15.23;;;8.70;99.90;;;;;;4968108;28;20437;-56
2021/10/09 02:51:35;;;;;;;24.60;13.77;;;8.70;99.90;;;;;;4969080;28;20942;-57
2021/10/09 02:54:01;;;;;;;26.83;15.70;;;8.70;99.90;;;;;;4967984;28;20192;-57
2021/10/09 02:56:27;;;;;;;32.90;15.67;;;8.70;99.90;;;;;;4966821;28;20186;-58
2021/10/09 02:58:52;;;;;;;34.27;16.30;;;8.70;99.90;;;;;;4969795;28;20637;-58
2021/10/09 03:01:18;;;;;;;24.50;15.43;;;8.80;99.90;;;;;;4969253;28;20205;-58
2021/10/09 03:03:44;;;;;;;27.17;15.33;;;8.70;99.90;;;;;;4969076;28;20244;-58
2021/10/09 03:06:09;;;;;;;26.70;15.17;;;8.70;99.90;;;;;;4967818;28;20182;-57
2021/10/09 03:08:35;;;;;;;24.23;14.77;;;8.70;99.90;;;;;;4967483;28;20213;-57
2021/10/09 03:11:00;;;;;;;24.50;15.30;;;8.70;99.90;;;;;;4968421;28;20220;-57
2021/10/09 03:13:26;;;;;;;25.90;14.33;;;8.70;99.90;;;;;;4967441;28;20666;-58
2021/10/09 03:15:54;;;;;;;25.50;14.70;;;8.70;99.90;;;;;;4968790;28;20186;-57
2021/10/09 03:18:20;;;;;;;26.47;15.13;;;8.70;99.90;;;;;;4968205;28;20232;-57
2021/10/09 03:20:46;;;;;;;26.87;14.40;;;8.70;99.90;;;;;;4966817;28;20464;-58
2021/10/09 03:23:12;;;;;;;27.20;14.80;;;8.70;99.90;;;;;;4968563;28;20237;-57
2021/10/09 03:25:38;;;;;;;22.83;14.07;;;8.70;99.90;;;;;;4967331;28;20221;-58
2021/10/09 03:28:03;;;;;;;31.73;13.90;;;8.70;99.90;;;;;;4967175;28;21831;-57
2021/10/09 03:30:29;;;;;;;24.47;14.60;;;8.70;99.90;;;;;;4967908;28;20198;-58
2021/10/09 03:32:55;;;;;;;26.30;15.37;;;8.70;99.90;;;;;;4964479;28;20249;-57
2021/10/09 03:35:20;;;;;;;24.63;14.50;;;8.70;99.90;;;;;;4967704;28;20241;-58
2021/10/09 03:37:46;;;;;;;30.90;14.77;;;8.70;99.90;;;;;;4969040;28;20311;-57
2021/10/09 03:40:15;;;;;;;24.40;14.93;;;8.70;99.90;;;;;;4967265;28;20174;-58
2021/10/09 03:45:19;;;;;;;28.33;13.90;;;8.70;99.90;;;;;;4969749;28;20437;-56
2021/10/09 03:48:33;;;;;;;32.70;16.63;;;8.70;99.90;;;;;;4984653;28;20181;-58
2021/10/09 03:53:03;;;;;;;27.67;14.27;;;8.70;99.90;;;;;;4972397;28;20611;-57
2021/10/09 03:55:29;;;;;;;29.97;15.47;;;8.60;99.90;;;;;;4964796;28;20204;-56
2021/10/09 03:57:55;;;;;;;28.50;15.90;;;8.60;99.90;;;;;;4965356;28;20480;-58
2021/10/09 04:00:21;;;;;;;25.90;15.30;;;8.60;99.90;;;;;;4966843;28;21035;-58
2021/10/09 04:02:47;;;;;;;23.43;14.77;;;8.70;99.90;;;;;;4980577;28;20217;-58
2021/10/09 04:05:12;;;;;;;27.13;15.00;;;8.70;99.90;;;;;;4966472;28;21807;-56
2021/10/09 04:07:39;;;;;;;29.30;15.20;;;8.70;99.90;;;;;;4963232;28;20452;-56
2021/10/09 04:10:06;;;;;;;29.43;15.97;;;8.70;99.90;;;;;;4966211;28;20284;-56
2021/10/09 04:12:32;;;;;;;28.30;15.47;;;8.70;99.90;;;;;;4981690;28;20480;-55
2021/10/09 04:14:58;;;;;;;33.67;15.90;;;8.60;99.90;;;;;;4966033;28;20815;-57
2021/10/09 04:17:24;;;;;;;30.40;16.03;;;8.60;99.90;;;;;;4964835;28;20468;-58
2021/10/09 04:19:49;;;;;;;33.23;16.83;;;8.60;99.90;;;;;;4966758;28;20237;-57
2021/10/09 04:22:15;;;;;;;33.40;17.17;;;8.60;99.90;;;;;;4967291;28;20201;-58
2021/10/09 04:24:41;;;;;;;32.13;16.07;;;8.60;99.90;;;;;;4966961;28;20212;-58
2021/10/09 04:27:06;;;;;;;30.77;16.20;;;8.50;99.90;;;;;;4967071;28;20639;-57
2021/10/09 04:29:32;;;;;;;32.70;16.80;;;8.50;99.90;;;;;;4966924;28;20571;-58
2021/10/09 04:31:58;;;;;;;28.73;14.30;;;8.50;99.90;;;;;;4965013;28;20214;-58
2021/10/09 04:34:24;;;;;;;31.60;16.90;;;8.40;99.90;;;;;;4964565;28;20181;-56
2021/10/09 04:36:49;;;;;;;24.83;16.10;;;8.40;99.90;;;;;;4964851;28;20661;-58
2021/10/09 04:39:15;;;;;;;28.77;16.43;;;8.40;99.90;;;;;;4967849;28;20717;-57
2021/10/09 04:41:41;;;;;;;30.50;15.70;;;8.30;99.90;;;;;;4965227;28;20204;-58
2021/10/09 04:44:07;;;;;;;34.33;16.83;;;8.30;99.90;;;;;;4965080;28;20650;-58
2021/10/09 04:46:32;;;;;;;28.90;15.10;;;8.30;99.90;;;;;;4965053;28;20212;-57
2021/10/09 04:48:58;;;;;;;28.77;14.87;;;8.30;99.90;;;;;;4982374;28;20386;-56
2021/10/09 04:51:24;;;;;;;35.70;14.60;;;8.20;99.90;;;;;;4967888;28;20205;-58
2021/10/09 04:53:50;;;;;;;27.37;15.70;;;8.20;99.90;;;;;;4966761;28;20695;-57
2021/10/09 04:56:16;;;;;;;28.93;16.53;;;8.10;99.90;;;;;;4965775;28;20528;-57
2021/10/09 04:58:42;;;;;;;31.43;15.60;;;8.10;99.90;;;;;;4971551;28;20201;-58
2021/10/09 05:01:07;;;;;;;35.57;16.27;;;8.10;99.90;;;;;;4971733;28;20572;-60
2021/10/09 05:03:33;;;;;;;27.87;16.90;;;8.10;99.90;;;;;;4969479;28;20550;-57
2021/10/09 05:05:59;;;;;;;30.10;15.40;;;8.10;99.90;;;;;;4983892;28;20780;-58
2021/10/09 05:08:25;;;;;;;28.87;15.63;;;8.10;99.90;;;;;;4969734;28;20226;-58
2021/10/09 05:10:50;;;;;;;27.77;16.70;;;8.10;99.90;;;;;;4965758;28;22014;-58
2021/10/09 05:13:16;;;;;;;28.00;15.00;;;8.10;99.90;;;;;;4961647;28;20182;-58
2021/10/09 05:15:43;;;;;;;33.37;17.47;;;8.10;99.90;;;;;;4976494;28;20241;-58
2021/10/09 05:18:09;;;;;;;27.90;16.10;;;8.00;99.90;;;;;;4977145;28;20206;-58
2021/10/09 05:20:36;;;;;;;27.67;15.73;;;8.00;99.90;;;;;;4961336;28;20464;-57
2021/10/09 05:23:02;;;;;;;27.83;15.80;;;8.00;99.90;;;;;;4964234;28;20985;-57
2021/10/09 05:25:31;;;;;;;34.73;15.60;;;8.00;99.90;;;;;;4962624;28;20445;-57
2021/10/09 05:28:16;;;;;;;30.50;16.10;;;8.00;99.90;;;;;;4962333;28;20484;-57
2021/10/09 05:30:47;;;;;;;29.97;16.00;;;8.00;99.90;;;;;;4964332;28;20452;-57
2021/10/09 05:35:56;;;;;;;28.80;16.20;;;8.00;99.90;;;;;;4966550;28;20444;-57
2021/10/09 05:38:22;;;;;;;33.77;16.07;;;7.90;99.90;;;;;;4959861;28;20468;-57
2021/10/09 05:40:48;;;;;;;40.43;15.63;;;7.90;99.90;;;;;;4982424;28;20452;-58
2021/10/09 05:43:15;;;;;;;31.87;15.97;;;7.90;99.90;;;;;;4967236;28;20181;-57
2021/10/09 05:45:41;;;;;;;27.30;15.83;;;7.90;99.90;;;;;;4965550;28;20562;-59
2021/10/09 05:48:07;;;;;;;24.67;15.00;;;8.00;99.90;;;;;;4968079;28;20437;-60
2021/10/09 05:50:43;;;;;;;25.27;14.83;;;7.90;99.90;;;;;;4959541;28;20186;-56
2021/10/09 05:53:27;;;;;;;34.33;17.10;;;7.90;99.90;;;;;;4967941;28;20448;-59
2021/10/09 05:56:04;;;;;;;31.00;16.13;;;7.90;99.90;;;;;;4965067;28;20434;-58
2021/10/09 06:25:57;;;;;;;33.63;15.23;;;7.80;99.90;;;;;;4962576;28;20440;-59
2021/10/09 07:00:23;;;;;;;27.57;14.70;;;8.10;99.90;;;;;;4967850;28;20453;-61
2021/10/09 07:02:49;;;;;;;25.37;14.50;;;8.20;99.90;;;;;;4967751;28;20436;-60
2021/10/09 07:05:15;;;;;;;25.77;16.10;;;8.20;99.90;;;;;;4964846;28;21000;-60
2021/10/09 07:07:48;;;;;;;26.90;14.20;;;8.30;99.90;;;;;;4967039;28;20695;-60
2021/10/09 07:10:14;;;;;;;24.90;13.67;;;8.30;99.90;;;;;;4968232;28;20441;-61
2021/10/09 07:12:40;;;;;;;28.70;14.50;;;8.40;99.90;;;;;;4966871;28;20460;-61
2021/10/09 07:15:08;;;;;;;29.37;14.87;;;8.40;99.90;;;;;;4965077;28;20475;-59
2021/10/09 07:17:34;;;;;;;31.67;13.93;;;8.50;99.90;;;;;;4966522;28;20620;-60
2021/10/09 07:20:00;;;;;;;25.57;14.93;;;8.50;99.90;;;;;;4966422;28;20448;-60
2021/10/09 07:22:26;;;;;;;31.53;14.50;;;8.50;99.90;;;;;;4969267;28;20174;-60
2021/10/09 07:24:51;;;;;;;22.10;14.00;;;8.50;99.90;;;;;;4981983;28;20504;-59
2021/10/09 07:27:17;;;;;;;31.93;15.10;;;8.60;99.90;;;;;;4967009;28;20272;-61
2021/10/09 07:29:43;;;;;;;23.23;13.90;;;8.60;99.90;;;;;;4969273;28;20177;-59
2021/10/09 07:32:08;;;;;;;27.43;14.40;;;8.70;99.90;;;;;;4965254;28;20186;-60
2021/10/09 07:34:34;;;;;;;25.20;13.90;;;8.70;99.90;;;;;;4966055;28;20214;-60
2021/10/09 07:37:00;;;;;;;26.27;14.77;;;8.80;99.90;;;;;;4962517;28;20182;-60
2021/10/09 07:39:26;;;;;;;25.13;14.23;;;8.90;99.90;;;;;;4965666;28;20644;-61
2021/10/09 07:41:54;;;;;;;30.43;14.40;;;9.00;99.90;;;;;;4966823;28;20178;-60
2021/10/09 07:44:22;;;;;;;26.13;14.30;;;9.00;99.90;;;;;;4966046;28;20628;-60
2021/10/09 07:46:48;;;;;;;24.50;13.63;;;9.10;99.90;;;;;;4982460;28;20825;-60
2021/10/09 07:49:14;;;;;;;24.00;13.00;;;9.20;99.90;;;;;;4965595;28;20535;-61
2021/10/09 07:51:40;;;;;;;23.87;13.53;;;9.30;99.90;;;;;;4965881;28;20441;-61
2021/10/09 07:54:05;;;;;;;23.37;13.57;;;9.30;99.90;;;;;;4962926;28;20201;-60
2021/10/09 07:56:31;;;;;;;24.03;14.27;;;9.40;99.90;;;;;;4964744;28;20188;-60
2021/10/09 07:58:57;;;;;;;22.37;13.07;;;9.50;99.90;;;;;;4967196;28;20217;-60
2021/10/09 08:01:23;;;;;;;26.50;13.60;;;9.60;99.90;;;;;;4961446;28;20933;-60
2021/10/09 08:03:49;;;;;;;19.43;12.47;;;9.70;99.10;;;;;;4967220;28;20596;-59
2021/10/09 08:06:15;;;;;;;20.83;12.67;;;9.70;98.10;;;;;;4979905;28;20352;-60
2021/10/09 08:08:40;;;;;;;24.80;13.70;;;9.80;97.70;;;;;;4964494;28;20178;-60
2021/10/09 08:11:07;;;;;;;20.93;12.20;;;9.90;97.70;;;;;;4966462;28;20188;-60
2021/10/09 08:13:33;;;;;;;27.30;12.90;;;9.90;97.30;;;;;;4963638;28;20618;-60
2021/10/09 08:15:58;;;;;;;23.73;13.67;;;10.00;96.50;;;;;;4979525;28;20441;-60
2021/10/09 08:18:24;;;;;;;22.03;13.40;;;10.00;96.10;;;;;;4966858;28;20233;-59
2021/10/09 08:20:58;;;;;;;20.57;13.17;;;10.10;95.80;;;;;;4966734;28;20205;-60
2021/10/09 08:23:26;;;;;;;22.30;12.80;;;10.20;95.10;;;;;;4965714;28;20674;-61
2021/10/09 08:39:25;;;;;;;17.47;11.43;;;10.60;92.50;;;;;;4933890;28;21006;-60
2021/10/09 08:41:51;;;;;;;22.33;11.30;;;10.70;91.80;;;;;;4967476;28;20456;-60
2021/10/09 08:44:17;;;;;;;26.90;12.50;;;10.70;91.20;;;;;;4967850;28;20625;-60
2021/10/09 08:46:43;;;;;;;20.20;12.17;;;10.80;91.40;;;;;;4979084;28;20443;-60
2021/10/09 08:49:09;;;;;;;21.30;12.93;;;10.90;90.70;;;;;;4966916;28;20505;-60
2021/10/09 08:51:37;;;;;;;19.47;11.77;;;10.90;91.00;;;;;;4971624;28;20198;-60
2021/10/09 08:54:08;;;;;;;19.53;10.77;;;11.00;91.60;;;;;;4967781;28;20248;-60
2021/10/09 08:56:38;;;;;;;21.17;11.33;;;11.20;90.80;;;;;;4966506;28;20437;-60
2021/10/09 09:27:29;;;;;;;18.83;10.90;;;12.20;74.60;;;;;;4968524;28;20501;-60
2021/10/09 09:39:15;;;;;;;17.23;9.80;;;12.70;71.00;;;;;;4973215;28;20740;-61
2021/10/09 09:41:46;;;;;;;17.10;10.43;;;12.80;68.50;;;;;;4971894;28;20942;-60
2021/10/09 09:44:16;;;;;;;20.20;10.03;;;12.90;65.70;;;;;;4972767;28;20549;-60
2021/10/09 09:46:59;;;;;;;17.50;10.87;;;13.00;65.70;;;;;;4971266;28;20433;-61
2021/10/09 09:49:27;;;;;;;16.33;10.00;;;13.10;66.40;;;;;;4972919;28;20436;-61
2021/10/09 09:51:54;;;;;;;27.13;12.23;;;13.30;67.20;;;;;;4970754;28;20672;-61
2021/10/09 09:54:25;;;;;;;19.73;10.90;;;13.40;66.70;;;;;;4968422;28;20880;-61
2021/10/09 09:56:56;;;;;;;16.63;10.70;;;13.50;65.50;;;;;;4969132;28;20425;-62
2021/10/09 09:59:27;;;;;;;19.30;10.13;;;13.60;64.70;;;;;;4972433;28;20468;-62
2021/10/09 10:01:53;;;;;;;20.37;10.33;;;13.60;62.90;;;;;;4973450;28;20459;-61
2021/10/09 10:04:19;;;;;;;15.17;10.30;;;13.60;60.30;;;;;;4967798;28;20952;-60
2021/10/09 10:06:45;;;;;;;14.83;9.43;;;13.70;60.40;;;;;;4966123;28;20169;-61
2021/10/09 10:09:11;;;;;;;15.23;10.50;;;13.70;61.10;;;;;;4969974;28;20973;-58
2021/10/09 10:11:37;;;;;;;15.20;9.80;;;13.80;60.60;;;;;;4967041;28;20613;-59
2021/10/09 10:14:04;;;;;;;22.33;10.77;;;13.90;59.70;;;;;;4972984;28;20213;-58
2021/10/09 10:16:30;;;;;;;19.20;10.40;;;14.00;59.10;;;;;;4967939;28;20483;-59
2021/10/09 10:18:58;;;;;;;16.63;10.50;;;14.10;59.20;;;;;;4972851;28;20457;-59
2021/10/09 10:21:38;;;;;;;17.40;10.10;;;14.20;58.40;;;;;;4967936;28;20457;-59
2021/10/09 10:24:09;;;;;;;16.03;8.80;;;14.30;58.20;;;;;;4967304;28;20539;-58
2021/10/09 10:26:34;;;;;;;15.60;8.93;;;14.40;57.90;;;;;;4971528;28;20876;-59
2021/10/09 10:29:00;;;;;;;15.20;9.80;;;14.50;58.70;;;;;;4973362;28;20457;-59
2021/10/09 10:31:28;;;;;;;14.07;8.97;;;14.70;58.30;;;;;;4971778;28;20181;-59
2021/10/09 10:34:20;;;;;;;13.27;8.70;;;14.80;57.30;;;;;;4973267;28;20213;-58
2021/10/09 10:36:46;;;;;;;13.50;8.37;;;14.90;56.80;;;;;;4972671;28;20770;-59
2021/10/09 10:39:17;;;;;;;19.73;9.27;;;15.00;55.90;;;;;;4970137;28;20468;-59
2021/10/09 10:41:46;;;;;;;19.63;8.20;;;15.10;55.80;;;;;;4971730;28;20447;-59
2021/10/09 10:44:49;;;;;;;18.30;9.27;;;15.20;55.20;;;;;;4972978;28;20453;-59
2021/10/09 10:48:02;;;;;;;15.67;8.87;;;15.30;54.80;;;;;;4972639;28;20443;-58
2021/10/09 10:51:00;;;;;;;19.10;9.00;;;15.40;54.20;;;;;;4985818;28;20435;-59
2021/10/09 10:53:48;;;;;;;16.63;8.80;;;15.50;54.10;;;;;;4970719;28;20436;-59
2021/10/09 10:56:14;;;;;;;24.27;10.67;;;15.60;54.00;;;;;;4970501;28;20642;-59
2021/10/09 10:58:39;;;;;;;15.40;8.63;;;15.80;53.30;;;;;;4970294;28;20464;-58
2021/10/09 11:01:22;;;;;;;11.40;7.90;;;16.10;53.50;;;;;;4967176;28;20182;-59
2021/10/09 11:03:56;;;;;;;12.03;8.00;;;16.40;52.60;;;;;;4972877;28;20197;-59
2021/10/09 11:06:26;;;;;;;14.43;7.53;;;16.80;52.10;;;;;;4972670;28;20426;-59
2021/10/09 11:08:53;;;;;;;12.63;7.50;;;17.30;51.00;;;;;;4973056;28;20468;-59
2021/10/09 11:11:45;;;;;;;13.13;8.70;;;17.60;49.70;;;;;;4971206;28;20425;-60
2021/10/09 11:14:23;;;;;;;16.40;9.07;;;18.10;48.90;;;;;;4968120;28;20536;-59
2021/10/09 11:17:01;;;;;;;13.67;8.60;;;18.40;47.90;;;;;;4967454;28;20447;-59
2021/10/09 11:20:00;;;;;;;15.20;8.77;;;18.80;46.70;;;;;;4963640;28;20457;-59
2021/10/09 11:22:39;;;;;;;15.57;9.27;;;19.30;45.80;;;;;;4943819;28;20465;-59
2021/10/09 11:25:05;;;;;;;13.60;8.07;;;19.70;44.70;;;;;;4962852;28;20519;-59
2021/10/09 11:27:38;;;;;;;11.90;7.37;;;20.10;45.20;;;;;;4961107;28;20443;-60
2021/10/09 11:30:09;;;;;;;11.87;7.90;;;20.50;44.80;;;;;;4966176;28;20476;-60
2021/10/09 11:32:41;;;;;;;12.60;7.87;;;20.70;43.00;;;;;;4967924;28;20568;-60
2021/10/09 11:35:08;;;;;;;18.80;9.07;;;20.90;42.70;;;;;;4964999;28;20823;-60
2021/10/09 11:37:43;;;;;;;12.10;8.23;;;21.20;42.50;;;;;;4962356;28;20727;-61
2021/10/09 11:40:09;;;;;;;15.57;8.73;;;21.50;42.30;;;;;;4968894;28;20688;-61
2021/10/09 11:42:56;;;;;;;17.30;8.73;;;21.80;41.00;;;;;;4970871;28;20917;-61
2021/10/09 11:56:08;;;;;;;13.00;9.17;;;22.90;38.80;;;;;;4966188;28;20746;-61
2021/10/09 11:58:57;;;;;;;11.73;8.20;;;23.00;39.00;;;;;;4964318;28;20460;-63
2021/10/09 12:01:43;;;;;;;17.70;8.40;;;22.80;39.40;;;;;;4965876;28;20428;-63
2021/10/09 12:04:15;;;;;;;13.53;7.73;;;22.80;39.10;;;;;;4965724;28;20535;-62
2021/10/09 12:06:43;;;;;;;11.70;7.50;;;22.60;39.00;;;;;;4963910;28;20472;-63
2021/10/09 12:09:10;;;;;;;9.60;7.33;;;22.60;38.60;;;;;;4981579;28;20433;-63
2021/10/09 12:11:36;;;;;;;9.70;8.13;;;22.60;38.80;;;;;;4970788;28;20413;-63
2021/10/09 12:14:05;;;;;;;13.60;7.80;;;22.60;38.70;;;;;;4984127;28;20665;-62
2021/10/09 12:16:35;;;;;;;10.67;7.17;;;22.50;38.50;;;;;;4968274;28;20635;-64
2021/10/09 12:19:03;;;;;;;12.10;7.37;;;22.40;38.00;;;;;;4966094;28;20467;-62
2021/10/09 12:21:32;;;;;;;9.30;7.57;;;22.20;38.60;;;;;;4968809;28;20417;-62
2021/10/09 12:23:58;;;;;;;9.80;6.87;;;22.10;38.70;;;;;;4969800;28;20815;-61
2021/10/09 12:26:26;;;;;;;10.90;7.10;;;22.00;39.20;;;;;;4983685;28;20433;-62
2021/10/09 12:29:10;;;;;;;8.57;6.57;;;22.10;39.60;;;;;;4970348;28;20483;-62
2021/10/09 12:31:45;;;;;;;11.70;6.83;;;22.10;39.20;;;;;;4967661;28;20499;-62
2021/10/09 12:34:33;;;;;;;10.83;6.30;;;22.20;39.30;;;;;;4966462;28;20593;-60
2021/10/09 12:37:17;;;;;;;13.40;7.63;;;22.10;38.50;;;;;;4967033;28;20532;-58
2021/10/09 12:39:44;;;;;;;14.13;7.07;;;22.00;38.80;;;;;;4967839;28;20792;-60
2021/10/09 12:42:13;;;;;;;9.37;6.60;;;21.90;38.60;;;;;;4967817;28;20868;-60
2021/10/09 12:44:39;;;;;;;8.13;6.20;;;21.90;39.40;;;;;;4965929;28;20456;-61
2021/10/09 12:47:04;;;;;;;8.17;6.50;;;21.80;38.20;;;;;;4967868;28;20413;-60
2021/10/09 12:49:30;;;;;;;8.80;5.90;;;21.70;38.10;;;;;;4964440;28;20182;-60
2021/10/09 12:51:56;;;;;;;8.17;6.60;;;21.80;38.30;;;;;;4968084;28;22119;-58
2021/10/09 12:54:21;;;;;;;9.37;6.80;;;21.80;38.40;;;;;;4966845;28;20220;-61
2021/10/09 12:56:49;;;;;;;11.47;6.80;;;21.90;37.40;;;;;;4968280;28;20178;-59
2021/10/09 12:59:17;;;;;;;10.60;6.90;;;21.90;37.80;;;;;;4970630;28;20383;-58
2021/10/09 13:01:42;;;;;;;8.33;6.80;;;21.90;37.80;;;;;;4967780;28;20436;-59
2021/10/09 13:04:08;;;;;;;10.27;6.40;;;21.90;37.60;;;;;;4968042;28;20460;-59
2021/10/09 13:06:34;;;;;;;9.17;6.17;;;21.80;37.40;;;;;;4968811;28;20654;-59
2021/10/09 13:09:00;;;;;;;9.03;6.67;;;21.70;37.50;;;;;;4969011;28;20232;-59
2021/10/09 13:11:28;;;;;;;9.57;6.50;;;21.70;37.40;;;;;;4963830;28;20173;-59
2021/10/09 13:13:54;;;;;;;8.63;6.40;;;21.80;37.70;;;;;;4968808;28;20453;-59
2021/10/09 13:16:20;;;;;;;12.03;6.07;;;21.70;37.60;;;;;;4966061;28;20947;-60
2021/10/09 13:18:46;;;;;;;10.87;6.77;;;21.70;38.00;;;;;;4969985;28;20765;-59
2021/10/09 13:21:12;;;;;;;12.47;6.83;;;21.60;37.80;;;;;;4983905;28;20241;-58
2021/10/09 13:23:38;;;;;;;8.63;6.10;;;21.60;38.40;;;;;;4969597;28;20232;-58
2021/10/09 13:26:04;;;;;;;11.97;6.87;;;21.60;38.70;;;;;;4962304;28;20515;-58
2021/10/09 13:28:31;;;;;;;10.80;7.33;;;21.60;38.80;;;;;;4960672;28;20495;-59
2021/10/09 13:30:57;;;;;;;13.53;6.87;;;21.60;38.20;;;;;;4965511;28;20433;-58
2021/10/09 13:33:23;;;;;;;11.33;7.50;;;21.60;37.80;;;;;;4964045;28;20690;-58
2021/10/09 13:35:48;;;;;;;11.80;7.57;;;21.50;37.90;;;;;;4962167;28;20437;-58
2021/10/09 13:38:15;;;;;;;13.07;7.10;;;21.50;37.80;;;;;;4963725;28;20260;-59
2021/10/09 13:40:41;;;;;;;12.70;6.90;;;21.50;38.00;;;;;;4954154;28;20217;-58
2021/10/09 13:43:11;;;;;;;13.53;7.83;;;21.60;38.60;;;;;;4958724;28;20446;-58
2021/10/09 13:45:49;;;;;;;13.53;6.83;;;21.60;38.30;;;;;;4959244;28;20488;-57
2021/10/09 13:48:15;;;;;;;12.87;6.90;;;21.60;37.70;;;;;;4965081;28;20917;-58
2021/10/09 13:50:47;;;;;;;13.00;6.77;;;21.70;36.20;;;;;;4963621;28;20432;-59
2021/10/09 13:53:13;;;;;;;10.70;6.80;;;21.80;36.10;;;;;;4965291;28;20189;-59
2021/10/09 13:55:40;;;;;;;10.83;7.40;;;21.80;35.80;;;;;;4969155;28;20968;-60
2021/10/09 13:58:06;;;;;;;12.20;8.73;;;21.80;35.30;;;;;;4970305;28;20817;-58
2021/10/09 14:00:32;;;;;;;15.07;8.67;;;21.70;35.70;;;;;;4971497;28;20433;-58
2021/10/09 14:02:58;;;;;;;12.20;7.57;;;21.70;36.50;;;;;;4966419;28;20432;-59
2021/10/09 14:05:24;;;;;;;14.50;7.87;;;21.70;37.10;;;;;;4968314;28;20229;-58
2021/10/09 14:07:50;;;;;;;13.40;8.00;;;21.80;37.50;;;;;;4968404;28;20503;-58
2021/10/09 14:10:19;;;;;;;19.23;9.93;;;21.80;37.50;;;;;;4968592;28;20433;-58
2021/10/09 14:12:45;;;;;;;12.00;7.63;;;21.90;38.40;;;;;;4968651;28;20245;-57
2021/10/09 14:15:12;;;;;;;11.70;8.10;;;21.80;38.00;;;;;;4964159;28;20464;-57
2021/10/09 14:17:38;;;;;;;12.50;8.10;;;21.80;37.80;;;;;;4966104;28;20441;-59
2021/10/09 14:20:06;;;;;;;11.40;8.13;;;21.90;38.70;;;;;;4967907;28;20492;-59
2021/10/09 14:22:33;;;;;;;16.57;7.90;;;21.90;38.60;;;;;;4967933;28;20537;-57
2021/10/09 14:24:59;;;;;;;14.27;7.77;;;22.00;38.50;;;;;;4964861;28;20879;-57
2021/10/09 14:27:28;;;;;;;12.60;8.37;;;22.10;38.60;;;;;;4968896;28;20532;-58
2021/10/09 14:29:54;;;;;;;15.23;8.40;;;22.10;38.40;;;;;;4967710;28;20524;-58
2021/10/09 14:32:20;;;;;;;12.43;9.00;;;22.10;38.20;;;;;;4967538;28;20508;-57
2021/10/09 14:34:45;;;;;;;14.97;9.13;;;22.20;38.50;;;;;;4970287;28;20516;-57
2021/10/09 14:37:11;;;;;;;16.07;8.40;;;22.30;37.70;;;;;;4966311;28;20185;-58
2021/10/09 14:39:38;;;;;;;17.27;8.50;;;22.30;37.40;;;;;;4968400;28;20241;-57
2021/10/09 14:42:07;;;;;;;15.50;8.10;;;22.30;37.20;;;;;;4969770;28;20170;-58
2021/10/09 14:44:32;;;;;;;15.93;8.10;;;22.40;37.10;;;;;;4969852;28;20862;-58
2021/10/09 14:49:31;;;;;;;17.87;8.73;;;22.40;36.60;;;;;;4963344;28;20761;-57
2021/10/09 14:52:14;;;;;;;12.93;8.70;;;22.60;36.50;;;;;;4966446;28;20198;-58
2021/10/09 15:18:25;;;;;;;14.90;9.43;;;27.50;30.40;;;;;;4967133;28;21162;-59
2021/10/09 15:20:52;;;;;;;10.60;8.30;;;27.20;29.90;;;;;;4963992;28;20443;-60
2021/10/09 15:23:18;;;;;;;17.07;8.57;;;25.60;30.70;;;;;;4963289;28;20425;-59
2021/10/09 15:25:45;;;;;;;16.40;9.63;;;23.60;33.10;;;;;;4967795;28;20492;-58
2021/10/09 15:28:14;;;;;;;12.10;9.20;;;21.70;35.50;;;;;;4968574;28;20185;-57
2021/10/09 15:30:41;;;;;;;16.10;9.20;;;20.10;38.00;;;;;;4970122;28;20485;-58